sensor_id;sensor_type;location;lat;lon;timestamp;pressure;altitude;pressure_sealevel;temperature;humidity
46942;BME280;32676;52.630;4.896;2022-08-26T00:01:11;99814.78;;;20.88;77.94
46942;BME280;32676;52.630;4.896;2022-08-26T00:03:38;99797.22;;;20.76;78.13
46942;BME280;32676;52.630;4.896;2022-08-26T00:06:05;99812.81;;;20.80;78.00
46942;BME280;32676;52.630;4.896;2022-08-26T00:08:32;99824.75;;;20.86;78.11
46942;BME280;32676;52.630;4.896;2022-08-26T00:11:02;99817.75;;;20.85;77.71
46942;BME280;32676;52.630;4.896;2022-08-26T00:13:29;99818.72;;;20.84;78.27
46942;BME280;32676;52.630;4.896;2022-08-26T00:15:56;99825.75;;;20.85;77.68
46942;BME280;32676;52.630;4.896;2022-08-26T00:18:23;99838.94;;;20.86;77.79
46942;BME280;32676;52.630;4.896;2022-08-26T00:20:50;99842.47;;;20.87;77.88
46942;BME280;32676;52.630;4.896;2022-08-26T00:23:16;99853.84;;;20.89;77.75
46942;BME280;32676;52.630;4.896;2022-08-26T00:25:43;99851.31;;;20.87;77.77
46942;BME280;32676;52.630;4.896;2022-08-26T00:28:11;99842.63;;;20.85;77.66
46942;BME280;32676;52.630;4.896;2022-08-26T00:30:39;99829.97;;;20.78;78.21
46942;BME280;32676;52.630;4.896;2022-08-26T00:33:06;99842.03;;;20.82;78.09
46942;BME280;32676;52.630;4.896;2022-08-26T00:35:33;99829.66;;;20.81;78.45
46942;BME280;32676;52.630;4.896;2022-08-26T00:38:01;99845.69;;;20.81;78.46
46942;BME280;32676;52.630;4.896;2022-08-26T00:40:30;99836.97;;;20.79;78.27
46942;BME280;32676;52.630;4.896;2022-08-26T00:42:58;99817.59;;;20.77;78.43
46942;BME280;32676;52.630;4.896;2022-08-26T00:45:26;99815.50;;;20.70;78.46
46942;BME280;32676;52.630;4.896;2022-08-26T00:47:55;99796.50;;;20.64;78.53
46942;BME280;32676;52.630;4.896;2022-08-26T00:50:26;99798.78;;;20.68;78.55
46942;BME280;32676;52.630;4.896;2022-08-26T00:52:56;99781.03;;;20.58;78.75
46942;BME280;32676;52.630;4.896;2022-08-26T00:55:27;99769.50;;;20.57;78.92
46942;BME280;32676;52.630;4.896;2022-08-26T00:57:55;99781.63;;;20.61;78.98
46942;BME280;32676;52.630;4.896;2022-08-26T01:00:24;99786.38;;;20.58;78.75
46942;BME280;32676;52.630;4.896;2022-08-26T01:02:53;99793.97;;;20.62;78.83
46942;BME280;32676;52.630;4.896;2022-08-26T01:05:21;99777.66;;;20.56;79.24
46942;BME280;32676;52.630;4.896;2022-08-26T01:07:47;99786.97;;;20.61;78.93
46942;BME280;32676;52.630;4.896;2022-08-26T01:10:18;99799.31;;;20.62;79.24
46942;BME280;32676;52.630;4.896;2022-08-26T01:12:47;99813.38;;;20.64;79.04
46942;BME280;32676;52.630;4.896;2022-08-26T01:15:24;99813.38;;;20.64;78.90
46942;BME280;32676;52.630;4.896;2022-08-26T01:17:50;99811.69;;;20.63;79.03
46942;BME280;32676;52.630;4.896;2022-08-26T01:20:26;99810.25;;;20.59;79.18
46942;BME280;32676;52.630;4.896;2022-08-26T01:22:57;99819.00;;;20.61;79.48
46942;BME280;32676;52.630;4.896;2022-08-26T01:25:27;99815.59;;;20.59;79.25
46942;BME280;32676;52.630;4.896;2022-08-26T01:27:56;99815.59;;;20.59;79.14
46942;BME280;32676;52.630;4.896;2022-08-26T01:30:25;99808.84;;;20.55;78.99
46942;BME280;32676;52.630;4.896;2022-08-26T01:32:53;99788.31;;;20.46;79.51
46942;BME280;32676;52.630;4.896;2022-08-26T01:35:21;99819.25;;;20.58;79.25
46942;BME280;32676;52.630;4.896;2022-08-26T01:37:50;99809.69;;;20.56;79.39
46942;BME280;32676;52.630;4.896;2022-08-26T01:40:23;99825.53;;;20.57;79.76
46942;BME280;32676;52.630;4.896;2022-08-26T01:42:52;99840.59;;;20.58;79.50
46942;BME280;32676;52.630;4.896;2022-08-26T01:45:21;99847.50;;;20.61;79.44
46942;BME280;32676;52.630;4.896;2022-08-26T01:47:50;99851.03;;;20.61;79.62
46942;BME280;32676;52.630;4.896;2022-08-26T01:50:21;99837.50;;;20.53;79.53
46942;BME280;32676;52.630;4.896;2022-08-26T01:52:49;99834.69;;;20.55;79.79
46942;BME280;32676;52.630;4.896;2022-08-26T01:55:19;99826.09;;;20.51;79.49
46942;BME280;32676;52.630;4.896;2022-08-26T01:57:50;99814.72;;;20.49;79.60
46942;BME280;32676;52.630;4.896;2022-08-26T02:00:17;99807.69;;;20.48;79.43
46942;BME280;32676;52.630;4.896;2022-08-26T02:02:47;99797.31;;;20.45;79.12
46942;BME280;32676;52.630;4.896;2022-08-26T02:05:18;99795.31;;;20.37;79.11
46942;BME280;32676;52.630;4.896;2022-08-26T02:07:46;99816.69;;;20.47;79.08
46942;BME280;32676;52.630;4.896;2022-08-26T02:10:14;99809.66;;;20.46;78.91
46942;BME280;32676;52.630;4.896;2022-08-26T02:12:42;99821.34;;;20.45;78.88
46942;BME280;32676;52.630;4.896;2022-08-26T02:15:10;99840.59;;;20.48;79.13
46942;BME280;32676;52.630;4.896;2022-08-26T02:17:39;99841.44;;;20.49;79.34
46942;BME280;32676;52.630;4.896;2022-08-26T02:20:08;99813.88;;;20.39;78.80
46942;BME280;32676;52.630;4.896;2022-08-26T02:22:35;99839.72;;;20.48;79.22
46942;BME280;32676;52.630;4.896;2022-08-26T02:25:09;99822.31;;;20.44;79.05
46942;BME280;32676;52.630;4.896;2022-08-26T02:27:37;99798.28;;;20.34;78.75
46942;BME280;32676;52.630;4.896;2022-08-26T02:30:08;99816.41;;;20.40;78.91
46942;BME280;32676;52.630;4.896;2022-08-26T02:32:36;99819.19;;;20.39;79.34
46942;BME280;32676;52.630;4.896;2022-08-26T02:35:03;99799.81;;;20.37;79.21
46942;BME280;32676;52.630;4.896;2022-08-26T02:37:31;99795.75;;;20.32;78.92
46942;BME280;32676;52.630;4.896;2022-08-26T02:39:57;99770.34;;;20.28;79.15
46942;BME280;32676;52.630;4.896;2022-08-26T02:42:24;99763.56;;;20.24;79.55
46942;BME280;32676;52.630;4.896;2022-08-26T02:44:51;99745.47;;;20.18;79.30
46942;BME280;32676;52.630;4.896;2022-08-26T02:47:20;99724.81;;;20.10;79.42
46942;BME280;32676;52.630;4.896;2022-08-26T02:49:46;99730.72;;;20.14;79.85
46942;BME280;32676;52.630;4.896;2022-08-26T02:52:13;99721.28;;;20.10;79.81
46942;BME280;32676;52.630;4.896;2022-08-26T02:54:40;99715.56;;;20.05;79.83
46942;BME280;32676;52.630;4.896;2022-08-26T02:57:07;99721.28;;;20.10;79.88
46942;BME280;32676;52.630;4.896;2022-08-26T02:59:33;99729.28;;;20.10;79.89
46942;BME280;32676;52.630;4.896;2022-08-26T03:02:00;99705.16;;;20.02;80.38
46942;BME280;32676;52.630;4.896;2022-08-26T03:04:28;99706.56;;;20.06;80.44
46942;BME280;32676;52.630;4.896;2022-08-26T03:06:55;99705.03;;;20.03;80.63
46942;BME280;32676;52.630;4.896;2022-08-26T03:09:22;99708.53;;;20.04;80.39
46942;BME280;32676;52.630;4.896;2022-08-26T03:11:49;99707.69;;;20.03;80.51
46942;BME280;32676;52.630;4.896;2022-08-26T03:14:16;99727.88;;;20.06;80.57
46942;BME280;32676;52.630;4.896;2022-08-26T03:16:42;99719.19;;;20.04;80.19
46942;BME280;32676;52.630;4.896;2022-08-26T03:19:09;99731.56;;;20.05;80.56
46942;BME280;32676;52.630;4.896;2022-08-26T03:21:37;99734.91;;;20.07;80.30
46942;BME280;32676;52.630;4.896;2022-08-26T03:24:04;99734.47;;;20.02;80.24
46942;BME280;32676;52.630;4.896;2022-08-26T03:26:31;99738.81;;;20.03;79.99
46942;BME280;32676;52.630;4.896;2022-08-26T03:28:57;99732.09;;;19.99;80.08
46942;BME280;32676;52.630;4.896;2022-08-26T03:31:42;99745.84;;;20.04;80.38
46942;BME280;32676;52.630;4.896;2022-08-26T03:34:08;99747.56;;;20.05;80.29
46942;BME280;32676;52.630;4.896;2022-08-26T03:36:36;99738.25;;;19.99;80.10
46942;BME280;32676;52.630;4.896;2022-08-26T03:39:04;99752.88;;;20.05;79.87
46942;BME280;32676;52.630;4.896;2022-08-26T03:41:32;99735.44;;;20.01;80.01
46942;BME280;32676;52.630;4.896;2022-08-26T03:44:00;99746.13;;;20.01;79.86
46942;BME280;32676;52.630;4.896;2022-08-26T03:46:29;99743.44;;;20.01;80.10
46942;BME280;32676;52.630;4.896;2022-08-26T03:48:56;99744.72;;;19.97;80.09
46942;BME280;32676;52.630;4.896;2022-08-26T03:51:23;99749.09;;;19.98;79.95
46942;BME280;32676;52.630;4.896;2022-08-26T03:53:51;99760.16;;;20.03;80.12
46942;BME280;32676;52.630;4.896;2022-08-26T03:56:17;99768.03;;;20.04;79.97
46942;BME280;32676;52.630;4.896;2022-08-26T03:58:44;99774.22;;;20.05;79.60
46942;BME280;32676;52.630;4.896;2022-08-26T04:01:11;99773.66;;;20.01;79.79
46942;BME280;32676;52.630;4.896;2022-08-26T04:03:37;99788.25;;;20.07;79.86
46942;BME280;32676;52.630;4.896;2022-08-26T04:06:22;99791.91;;;20.06;79.54
46942;BME280;32676;52.630;4.896;2022-08-26T04:08:48;99789.22;;;20.06;79.60
46942;BME280;32676;52.630;4.896;2022-08-26T04:11:18;99788.53;;;20.04;79.55
46942;BME280;32676;52.630;4.896;2022-08-26T04:13:45;99792.44;;;20.00;79.43
46942;BME280;32676;52.630;4.896;2022-08-26T04:16:13;99831.22;;;20.13;79.15
46942;BME280;32676;52.630;4.896;2022-08-26T04:18:40;99844.41;;;20.15;78.71
46942;BME280;32676;52.630;4.896;2022-08-26T04:21:07;99848.09;;;20.14;78.47
46942;BME280;32676;52.630;4.896;2022-08-26T04:23:34;99857.06;;;20.13;78.11
46942;BME280;32676;52.630;4.896;2022-08-26T04:26:01;99851.84;;;20.11;77.93
46942;BME280;32676;52.630;4.896;2022-08-26T04:28:29;99855.38;;;20.12;77.80
46942;BME280;32676;52.630;4.896;2022-08-26T04:30:56;99873.63;;;20.17;77.77
46942;BME280;32676;52.630;4.896;2022-08-26T04:33:22;99850.06;;;20.12;77.59
46942;BME280;32676;52.630;4.896;2022-08-26T04:35:49;99854.38;;;20.13;77.40
46942;BME280;32676;52.630;4.896;2022-08-26T04:38:15;99838.66;;;20.10;77.78
46942;BME280;32676;52.630;4.896;2022-08-26T04:40:44;99813.22;;;19.96;77.69
46942;BME280;32676;52.630;4.896;2022-08-26T04:43:11;99835.56;;;20.05;78.03
46942;BME280;32676;52.630;4.896;2022-08-26T04:45:39;99820.53;;;20.04;77.76
46942;BME280;32676;52.630;4.896;2022-08-26T04:48:06;99819.13;;;20.00;77.88
46942;BME280;32676;52.630;4.896;2022-08-26T04:50:33;99808.44;;;20.00;78.18
46942;BME280;32676;52.630;4.896;2022-08-26T04:53:00;99835.69;;;20.03;78.11
46942;BME280;32676;52.630;4.896;2022-08-26T04:55:26;99839.06;;;20.05;77.91
46942;BME280;32676;52.630;4.896;2022-08-26T04:57:53;99847.06;;;20.05;77.91
46942;BME280;32676;52.630;4.896;2022-08-26T05:00:20;99850.56;;;20.06;77.57
46942;BME280;32676;52.630;4.896;2022-08-26T05:02:48;99855.91;;;20.06;77.24
46942;BME280;32676;52.630;4.896;2022-08-26T05:05:15;99855.91;;;20.06;77.51
46942;BME280;32676;52.630;4.896;2022-08-26T05:07:41;99855.91;;;20.06;77.32
46942;BME280;32676;52.630;4.896;2022-08-26T05:10:08;99854.22;;;20.05;77.22
46942;BME280;32676;52.630;4.896;2022-08-26T05:12:35;99851.97;;;20.00;77.11
46942;BME280;32676;52.630;4.896;2022-08-26T05:15:02;99820.19;;;19.87;77.49
46942;BME280;32676;52.630;4.896;2022-08-26T05:17:29;99837.09;;;19.98;77.58
46942;BME280;32676;52.630;4.896;2022-08-26T05:19:57;99856.16;;;20.03;77.35
46942;BME280;32676;52.630;4.896;2022-08-26T05:22:24;99857.72;;;19.96;77.66
46942;BME280;32676;52.630;4.896;2022-08-26T05:24:51;99856.72;;;19.97;77.37
46942;BME280;32676;52.630;4.896;2022-08-26T05:27:17;99865.16;;;20.02;77.63
46942;BME280;32676;52.630;4.896;2022-08-26T05:29:43;99860.38;;;19.96;77.17
46942;BME280;32676;52.630;4.896;2022-08-26T05:32:10;99870.75;;;19.99;77.18
46942;BME280;32676;52.630;4.896;2022-08-26T05:34:37;99880.91;;;20.05;77.41
46942;BME280;32676;52.630;4.896;2022-08-26T05:37:05;99876.53;;;20.04;77.00
46942;BME280;32676;52.630;4.896;2022-08-26T05:39:32;99876.09;;;19.99;77.15
46942;BME280;32676;52.630;4.896;2022-08-26T05:41:59;99898.56;;;20.06;77.45
46942;BME280;32676;52.630;4.896;2022-08-26T05:44:25;99887.06;;;20.05;76.90
46942;BME280;32676;52.630;4.896;2022-08-26T05:46:51;99895.91;;;20.06;76.93
46942;BME280;32676;52.630;4.896;2022-08-26T05:49:18;99908.41;;;20.05;76.98
46942;BME280;32676;52.630;4.896;2022-08-26T05:51:44;99892.41;;;20.05;77.25
46942;BME280;32676;52.630;4.896;2022-08-26T05:54:13;99897.16;;;20.02;76.92
46942;BME280;32676;52.630;4.896;2022-08-26T05:56:40;99905.88;;;20.04;77.00
46942;BME280;32676;52.630;4.896;2022-08-26T05:59:11;99907.56;;;20.05;76.60
46942;BME280;32676;52.630;4.896;2022-08-26T06:01:38;99919.66;;;20.09;76.61
46942;BME280;32676;52.630;4.896;2022-08-26T06:04:04;99925.00;;;20.09;76.63
46942;BME280;32676;52.630;4.896;2022-08-26T06:06:33;99927.78;;;20.07;76.70
46942;BME280;32676;52.630;4.896;2022-08-26T06:09:02;99921.63;;;20.07;76.51
46942;BME280;32676;52.630;4.896;2022-08-26T06:11:31;99928.63;;;20.08;76.34
46942;BME280;32676;52.630;4.896;2022-08-26T06:13:59;99937.34;;;20.10;76.55
46942;BME280;32676;52.630;4.896;2022-08-26T06:16:27;99927.75;;;19.98;76.34
46942;BME280;32676;52.630;4.896;2022-08-26T06:18:54;99967.13;;;20.15;76.32
46942;BME280;32676;52.630;4.896;2022-08-26T06:21:23;99983.13;;;20.15;76.71
46942;BME280;32676;52.630;4.896;2022-08-26T06:23:53;99987.50;;;20.16;76.13
46942;BME280;32676;52.630;4.896;2022-08-26T06:26:39;99984.84;;;20.16;76.35
46942;BME280;32676;52.630;4.896;2022-08-26T06:29:07;99991.00;;;20.17;76.52
46942;BME280;32676;52.630;4.896;2022-08-26T06:31:35;99978.09;;;20.12;76.15
46942;BME280;32676;52.630;4.896;2022-08-26T06:34:03;99985.09;;;20.13;76.42
46942;BME280;32676;52.630;4.896;2022-08-26T06:36:30;99994.50;;;20.17;76.20
46942;BME280;32676;52.630;4.896;2022-08-26T06:39:00;100004.22;;;20.18;75.97
46942;BME280;32676;52.630;4.896;2022-08-26T06:41:27;100017.44;;;20.20;75.64
46942;BME280;32676;52.630;4.896;2022-08-26T06:43:57;100028.81;;;20.22;75.71
46942;BME280;32676;52.630;4.896;2022-08-26T06:46:24;100046.25;;;20.26;75.64
46942;BME280;32676;52.630;4.896;2022-08-26T06:48:51;100063.81;;;20.28;75.19
46942;BME280;32676;52.630;4.896;2022-08-26T06:51:20;100082.94;;;20.33;75.03
46942;BME280;32676;52.630;4.896;2022-08-26T06:53:49;100095.06;;;20.38;74.85
46942;BME280;32676;52.630;4.896;2022-08-26T06:56:24;100117.38;;;20.37;74.80
46942;BME280;32676;52.630;4.896;2022-08-26T06:58:51;100135.50;;;20.43;74.41
46942;BME280;32676;52.630;4.896;2022-08-26T07:01:20;100137.47;;;20.41;74.14
46942;BME280;32676;52.630;4.896;2022-08-26T07:03:49;100152.97;;;20.47;73.99
46942;BME280;32676;52.630;4.896;2022-08-26T07:06:16;100154.66;;;20.48;74.32
46942;BME280;32676;52.630;4.896;2022-08-26T07:08:43;100165.34;;;20.48;73.66
46942;BME280;32676;52.630;4.896;2022-08-26T07:11:10;100149.59;;;20.45;73.75
46942;BME280;32676;52.630;4.896;2022-08-26T07:13:37;100141.72;;;20.43;73.75
46942;BME280;32676;52.630;4.896;2022-08-26T07:16:03;100116.91;;;20.31;74.10
46942;BME280;32676;52.630;4.896;2022-08-26T07:18:35;100118.22;;;20.37;74.01
46942;BME280;32676;52.630;4.896;2022-08-26T07:21:03;100108.66;;;20.35;74.11
46942;BME280;32676;52.630;4.896;2022-08-26T07:23:30;100107.81;;;20.34;74.32
46942;BME280;32676;52.630;4.896;2022-08-26T07:25:57;100114.94;;;20.33;74.37
46942;BME280;32676;52.630;4.896;2022-08-26T07:28:24;100107.94;;;20.32;74.21
46942;BME280;32676;52.630;4.896;2022-08-26T07:30:50;100110.59;;;20.32;74.13
46942;BME280;32676;52.630;4.896;2022-08-26T07:33:17;100123.69;;;20.36;73.78
46942;BME280;32676;52.630;4.896;2022-08-26T07:35:45;100117.50;;;20.35;74.16
46942;BME280;32676;52.630;4.896;2022-08-26T07:38:11;100149.16;;;20.40;74.11
46942;BME280;32676;52.630;4.896;2022-08-26T07:40:38;100176.53;;;20.42;73.77
46942;BME280;32676;52.630;4.896;2022-08-26T07:43:06;100210.34;;;20.52;73.61
46942;BME280;32676;52.630;4.896;2022-08-26T07:45:33;100235.66;;;20.58;73.16
46942;BME280;32676;52.630;4.896;2022-08-26T07:48:00;100262.75;;;20.65;73.06
46942;BME280;32676;52.630;4.896;2022-08-26T07:50:26;100302.13;;;20.73;72.70
46942;BME280;32676;52.630;4.896;2022-08-26T07:52:54;100335.63;;;20.77;72.17
46942;BME280;32676;52.630;4.896;2022-08-26T07:55:21;100375.63;;;20.88;72.09
46942;BME280;32676;52.630;4.896;2022-08-26T07:57:48;100396.03;;;20.89;71.63
46942;BME280;32676;52.630;4.896;2022-08-26T08:00:16;100428.56;;;20.94;71.51
46942;BME280;32676;52.630;4.896;2022-08-26T08:02:43;100407.66;;;20.88;71.28
46942;BME280;32676;52.630;4.896;2022-08-26T08:05:11;100415.06;;;20.96;71.37
46942;BME280;32676;52.630;4.896;2022-08-26T08:07:38;100437.03;;;20.99;71.49
46942;BME280;32676;52.630;4.896;2022-08-26T08:10:08;100437.03;;;20.99;71.33
46942;BME280;32676;52.630;4.896;2022-08-26T08:12:34;100434.50;;;20.98;71.31
46942;BME280;32676;52.630;4.896;2022-08-26T08:15:01;100437.53;;;20.93;70.31
46942;BME280;32676;52.630;4.896;2022-08-26T08:17:27;100459.84;;;21.03;70.47
46942;BME280;32676;52.630;4.896;2022-08-26T08:19:54;100484.38;;;21.08;70.13
46942;BME280;32676;52.630;4.896;2022-08-26T08:22:21;100483.50;;;21.08;69.57
46942;BME280;32676;52.630;4.896;2022-08-26T08:24:48;100472.22;;;21.04;68.78
46942;BME280;32676;52.630;4.896;2022-08-26T08:27:16;100463.75;;;20.99;68.69
46942;BME280;32676;52.630;4.896;2022-08-26T08:29:43;100493.34;;;21.07;68.73
46942;BME280;32676;52.630;4.896;2022-08-26T08:32:10;100543.13;;;21.20;68.48
46942;BME280;32676;52.630;4.896;2022-08-26T08:34:38;100582.22;;;21.32;68.11
46942;BME280;32676;52.630;4.896;2022-08-26T08:37:05;100597.38;;;21.32;67.71
46942;BME280;32676;52.630;4.896;2022-08-26T08:39:32;100621.19;;;21.35;67.57
46942;BME280;32676;52.630;4.896;2022-08-26T08:42:24;100647.28;;;21.42;67.61
46942;BME280;32676;52.630;4.896;2022-08-26T08:44:55;100696.19;;;21.56;67.03
46942;BME280;32676;52.630;4.896;2022-08-26T08:47:30;100726.03;;;21.61;67.10
46942;BME280;32676;52.630;4.896;2022-08-26T08:49:58;100756.69;;;21.68;66.37
46942;BME280;32676;52.630;4.896;2022-08-26T08:52:30;100793.75;;;21.73;66.67
46942;BME280;32676;52.630;4.896;2022-08-26T08:54:57;100810.66;;;21.73;66.35
46942;BME280;32676;52.630;4.896;2022-08-26T08:57:30;100841.56;;;21.89;66.13
46942;BME280;32676;52.630;4.896;2022-08-26T09:00:07;100873.16;;;21.95;65.67
46942;BME280;32676;52.630;4.896;2022-08-26T09:02:43;100882.91;;;21.96;65.92
46942;BME280;32676;52.630;4.896;2022-08-26T09:05:16;100911.84;;;22.02;66.20
46942;BME280;32676;52.630;4.896;2022-08-26T09:07:46;100916.06;;;22.04;65.93
46942;BME280;32676;52.630;4.896;2022-08-26T09:10:31;100930.94;;;22.09;66.13
46942;BME280;32676;52.630;4.896;2022-08-26T09:13:02;100960.13;;;22.12;67.02
46942;BME280;32676;52.630;4.896;2022-08-26T09:15:39;100944.31;;;22.09;66.25
46942;BME280;32676;52.630;4.896;2022-08-26T09:18:12;100913.56;;;22.03;65.69
46942;BME280;32676;52.630;4.896;2022-08-26T09:20:45;100883.38;;;21.90;66.45
46942;BME280;32676;52.630;4.896;2022-08-26T09:23:14;100913.56;;;22.03;66.59
46942;BME280;32676;52.630;4.896;2022-08-26T09:25:46;100951.38;;;22.10;66.48
46942;BME280;32676;52.630;4.896;2022-08-26T09:28:18;100972.44;;;22.14;66.00
46942;BME280;32676;52.630;4.896;2022-08-26T09:30:52;100994.34;;;22.19;65.67
46942;BME280;32676;52.630;4.896;2022-08-26T09:33:26;101020.59;;;22.26;65.76
46942;BME280;32676;52.630;4.896;2022-08-26T09:36:11;100999.41;;;22.22;65.77
46942;BME280;32676;52.630;4.896;2022-08-26T09:38:39;100981.06;;;22.18;65.53
46942;BME280;32676;52.630;4.896;2022-08-26T09:41:20;100993.72;;;22.16;65.08
46942;BME280;32676;52.630;4.896;2022-08-26T09:44:07;100996.25;;;22.17;64.93
46942;BME280;32676;52.630;4.896;2022-08-26T09:46:34;101019.16;;;22.21;65.10
46942;BME280;32676;52.630;4.896;2022-08-26T09:49:24;101046.91;;;22.32;65.02
46942;BME280;32676;52.630;4.896;2022-08-26T09:52:18;101027.72;;;22.27;65.01
46942;BME280;32676;52.630;4.896;2022-08-26T09:55:00;101003.09;;;22.21;64.68
46942;BME280;32676;52.630;4.896;2022-08-26T09:57:28;100989.09;;;22.18;64.57
46942;BME280;32676;52.630;4.896;2022-08-26T09:59:56;101018.03;;;22.24;64.57
46942;BME280;32676;52.630;4.896;2022-08-26T10:02:34;101041.56;;;22.32;63.93
46942;BME280;32676;52.630;4.896;2022-08-26T10:05:06;101079.31;;;22.40;64.32
46942;BME280;32676;52.630;4.896;2022-08-26T10:07:42;101120.94;;;22.44;64.10
46942;BME280;32676;52.630;4.896;2022-08-26T10:10:16;101117.91;;;22.49;63.25
46942;BME280;32676;52.630;4.896;2022-08-26T10:12:50;101103.91;;;22.45;63.10
46942;BME280;32676;52.630;4.896;2022-08-26T10:15:23;101108.28;;;22.46;63.93
46942;BME280;32676;52.630;4.896;2022-08-26T10:17:56;101082.00;;;22.40;63.17
46942;BME280;32676;52.630;4.896;2022-08-26T10:20:28;101090.75;;;22.42;63.26
46942;BME280;32676;52.630;4.896;2022-08-26T10:22:59;101115.34;;;22.47;63.73
46942;BME280;32676;52.630;4.896;2022-08-26T10:25:36;101141.66;;;22.53;63.67
46942;BME280;32676;52.630;4.896;2022-08-26T10:28:07;101194.28;;;22.66;63.94
46942;BME280;32676;52.630;4.896;2022-08-26T10:30:40;101239.47;;;22.70;63.47
46942;BME280;32676;52.630;4.896;2022-08-26T10:33:11;101287.34;;;22.86;63.42
46942;BME280;32676;52.630;4.896;2022-08-26T10:35:45;101344.53;;;22.98;63.17
46942;BME280;32676;52.630;4.896;2022-08-26T10:38:16;101319.28;;;22.89;62.92
46942;BME280;32676;52.630;4.896;2022-08-26T10:40:49;101331.25;;;22.96;62.59
46942;BME280;32676;52.630;4.896;2022-08-26T10:43:21;101349.16;;;22.96;62.33
46942;BME280;32676;52.630;4.896;2022-08-26T10:45:52;101384.91;;;23.08;61.99
46942;BME280;32676;52.630;4.896;2022-08-26T10:48:22;101394.69;;;23.09;62.25
46942;BME280;32676;52.630;4.896;2022-08-26T10:50:50;101355.09;;;22.88;62.64
46942;BME280;32676;52.630;4.896;2022-08-26T10:53:21;101379.88;;;23.03;62.30
46942;BME280;32676;52.630;4.896;2022-08-26T10:55:56;101379.66;;;23.06;62.06
46942;BME280;32676;52.630;4.896;2022-08-26T10:58:44;101358.44;;;23.03;62.10
46942;BME280;32676;52.630;4.896;2022-08-26T11:01:21;101334.66;;;22.98;61.83
46942;BME280;32676;52.630;4.896;2022-08-26T11:04:19;101320.53;;;22.96;61.82
46942;BME280;32676;52.630;4.896;2022-08-26T11:06:46;101306.13;;;22.86;62.06
46942;BME280;32676;52.630;4.896;2022-08-26T11:09:41;101380.53;;;23.07;62.69
46942;BME280;32676;52.630;4.896;2022-08-26T11:12:08;101452.72;;;23.21;63.13
46942;BME280;32676;52.630;4.896;2022-08-26T11:14:36;101521.28;;;23.36;62.72
46942;BME280;32676;52.630;4.896;2022-08-26T11:17:08;101552.78;;;23.46;61.94
46942;BME280;32676;52.630;4.896;2022-08-26T11:19:59;101539.69;;;23.41;61.23
46942;BME280;32676;52.630;4.896;2022-08-26T11:22:28;101518.50;;;23.38;60.75
46942;BME280;32676;52.630;4.896;2022-08-26T11:25:03;101539.69;;;23.41;61.02
46942;BME280;32676;52.630;4.896;2022-08-26T11:27:53;101526.44;;;23.40;60.37
46942;BME280;32676;52.630;4.896;2022-08-26T11:30:44;101513.25;;;23.36;60.39
46942;BME280;32676;52.630;4.896;2022-08-26T11:39:29;101404.94;;;23.15;60.72
46942;BME280;32676;52.630;4.896;2022-08-26T11:42:00;101310.03;;;22.93;60.63
46942;BME280;32676;52.630;4.896;2022-08-26T11:44:36;101292.72;;;22.86;61.44
46942;BME280;32676;52.630;4.896;2022-08-26T11:47:04;101287.13;;;22.89;60.93
46942;BME280;32676;52.630;4.896;2022-08-26T11:49:32;101267.88;;;22.84;60.16
46942;BME280;32676;52.630;4.896;2022-08-26T11:52:15;101240.34;;;22.82;60.55
46942;BME280;32676;52.630;4.896;2022-08-26T11:55:02;101241.28;;;22.81;60.88
46942;BME280;32676;52.630;4.896;2022-08-26T11:57:32;101239.84;;;22.77;61.42
46942;BME280;32676;52.630;4.896;2022-08-26T11:59:59;101235.19;;;22.79;62.12
46942;BME280;32676;52.630;4.896;2022-08-26T12:02:27;101205.22;;;22.74;62.12
46942;BME280;32676;52.630;4.896;2022-08-26T12:04:54;101178.09;;;22.67;62.50
46942;BME280;32676;52.630;4.896;2022-08-26T12:07:25;101127.28;;;22.54;62.51
46942;BME280;32676;52.630;4.896;2022-08-26T12:09:55;101148.22;;;22.60;62.31
46942;BME280;32676;52.630;4.896;2022-08-26T12:12:27;101197.44;;;22.71;62.79
46942;BME280;32676;52.630;4.896;2022-08-26T12:15:15;101257.16;;;22.84;62.16
46942;BME280;32676;52.630;4.896;2022-08-26T12:17:44;101295.91;;;22.91;62.05
46942;BME280;32676;52.630;4.896;2022-08-26T12:20:19;101316.84;;;22.97;61.22
46942;BME280;32676;52.630;4.896;2022-08-26T12:22:53;101290.53;;;22.91;60.86
46942;BME280;32676;52.630;4.896;2022-08-26T12:25:22;101261.44;;;22.87;61.30
46942;BME280;32676;52.630;4.896;2022-08-26T12:27:51;101258.88;;;22.85;61.62
46942;BME280;32676;52.630;4.896;2022-08-26T12:30:20;101260.81;;;22.83;62.10
46942;BME280;32676;52.630;4.896;2022-08-26T12:32:49;101270.44;;;22.86;61.55
46942;BME280;32676;52.630;4.896;2022-08-26T12:35:18;101261.78;;;22.82;61.94
46942;BME280;32676;52.630;4.896;2022-08-26T12:37:49;101232.78;;;22.76;61.92
46942;BME280;32676;52.630;4.896;2022-08-26T12:40:31;101201.72;;;22.73;61.98
46942;BME280;32676;52.630;4.896;2022-08-26T12:43:03;101126.31;;;22.55;62.16
46942;BME280;32676;52.630;4.896;2022-08-26T12:45:32;101077.38;;;22.42;61.94
46942;BME280;32676;52.630;4.896;2022-08-26T12:48:01;101063.13;;;22.41;61.96
46942;BME280;32676;52.630;4.896;2022-08-26T12:50:33;101037.94;;;22.33;62.25
46942;BME280;32676;52.630;4.896;2022-08-26T12:53:03;101029.16;;;22.31;62.78
46942;BME280;32676;52.630;4.896;2022-08-26T12:55:37;101046.47;;;22.38;62.22
46942;BME280;32676;52.630;4.896;2022-08-26T12:58:28;101026.22;;;22.34;62.16
46942;BME280;32676;52.630;4.896;2022-08-26T13:00:57;101009.69;;;22.29;61.94
46942;BME280;32676;52.630;4.896;2022-08-26T13:03:37;100993.84;;;22.26;62.25
46942;BME280;32676;52.630;4.896;2022-08-26T13:06:31;100951.75;;;22.16;61.70
46942;BME280;32676;52.630;4.896;2022-08-26T13:09:00;100934.22;;;22.12;62.06
46942;BME280;32676;52.630;4.896;2022-08-26T13:11:31;100928.13;;;22.10;62.23
46942;BME280;32676;52.630;4.896;2022-08-26T13:14:02;100903.91;;;22.00;62.13
46942;BME280;32676;52.630;4.896;2022-08-26T13:16:29;100931.66;;;22.11;62.33